sensor_id;sensor_type;location;lat;lon;timestamp;P1;durP1;ratioP1;P2;durP2;ratioP2
37445;SDS011;23307;51.136;14.942;2022-12-07T00:00:42;1.03;;;1.03;;
37445;SDS011;23307;51.136;14.942;2022-12-07T00:03:08;1.37;;;1.27;;
37445;SDS011;23307;51.136;14.942;2022-12-07T00:05:33;1.40;;;1.30;;
37445;SDS011;23307;51.136;14.942;2022-12-07T00:07:59;1.57;;;1.47;;
37445;SDS011;23307;51.136;14.942;2022-12-07T00:10:24;1.30;;;1.20;;
37445;SDS011;23307;51.136;14.942;2022-12-07T00:12:50;1.30;;;1.20;;
37445;SDS011;23307;51.136;14.942;2022-12-07T00:15:15;1.20;;;1.10;;
37445;SDS011;23307;51.136;14.942;2022-12-07T00:17:41;1.00;;;1.00;;
37445;SDS011;23307;51.136;14.942;2022-12-07T00:20:07;1.40;;;1.30;;
37445;SDS011;23307;51.136;14.942;2022-12-07T00:22:33;1.33;;;1.23;;
37445;SDS011;23307;51.136;14.942;2022-12-07T00:24:58;1.30;;;1.20;;
37445;SDS011;23307;51.136;14.942;2022-12-07T00:27:24;1.10;;;1.00;;
37445;SDS011;23307;51.136;14.942;2022-12-07T00:29:49;1.13;;;1.03;;
37445;SDS011;23307;51.136;14.942;2022-12-07T00:32:14;1.23;;;1.13;;
37445;SDS011;23307;51.136;14.942;2022-12-07T00:34:40;2.87;;;1.30;;
37445;SDS011;23307;51.136;14.942;2022-12-07T00:37:05;1.30;;;1.20;;
37445;SDS011;23307;51.136;14.942;2022-12-07T00:39:31;1.20;;;1.10;;
37445;SDS011;23307;51.136;14.942;2022-12-07T00:41:57;1.30;;;1.20;;
37445;SDS011;23307;51.136;14.942;2022-12-07T00:44:22;1.53;;;1.40;;
37445;SDS011;23307;51.136;14.942;2022-12-07T00:46:48;1.40;;;1.30;;
37445;SDS011;23307;51.136;14.942;2022-12-07T00:49:13;1.30;;;1.20;;
37445;SDS011;23307;51.136;14.942;2022-12-07T00:51:39;1.70;;;1.40;;
37445;SDS011;23307;51.136;14.942;2022-12-07T00:54:04;1.60;;;1.50;;
37445;SDS011;23307;51.136;14.942;2022-12-07T00:56:30;1.70;;;1.60;;
37445;SDS011;23307;51.136;14.942;2022-12-07T01:01:23;2.00;;;1.80;;
37445;SDS011;23307;51.136;14.942;2022-12-07T01:03:49;2.53;;;2.00;;
37445;SDS011;23307;51.136;14.942;2022-12-07T01:06:16;2.73;;;2.13;;
37445;SDS011;23307;51.136;14.942;2022-12-07T01:08:42;3.73;;;2.50;;
37445;SDS011;23307;51.136;14.942;2022-12-07T01:11:09;2.93;;;2.60;;
37445;SDS011;23307;51.136;14.942;2022-12-07T01:13:37;3.27;;;2.60;;
37445;SDS011;23307;51.136;14.942;2022-12-07T01:16:04;4.73;;;3.47;;
37445;SDS011;23307;51.136;14.942;2022-12-07T01:18:31;5.57;;;3.80;;
37445;SDS011;23307;51.136;14.942;2022-12-07T01:23:28;7.27;;;4.93;;
37445;SDS011;23307;51.136;14.942;2022-12-07T01:25:58;7.80;;;5.07;;
37445;SDS011;23307;51.136;14.942;2022-12-07T01:28:25;8.23;;;5.40;;
37445;SDS011;23307;51.136;14.942;2022-12-07T01:31:11;8.57;;;6.00;;
37445;SDS011;23307;51.136;14.942;2022-12-07T01:33:40;11.13;;;6.47;;
37445;SDS011;23307;51.136;14.942;2022-12-07T01:36:28;11.50;;;7.30;;
37445;SDS011;23307;51.136;14.942;2022-12-07T01:38:55;11.83;;;7.27;;
37445;SDS011;23307;51.136;14.942;2022-12-07T01:41:24;10.27;;;6.67;;
37445;SDS011;23307;51.136;14.942;2022-12-07T01:46:45;12.23;;;7.40;;
37445;SDS011;23307;51.136;14.942;2022-12-07T01:49:14;12.73;;;7.67;;
37445;SDS011;23307;51.136;14.942;2022-12-07T01:51:44;15.77;;;9.03;;
37445;SDS011;23307;51.136;14.942;2022-12-07T01:54:11;11.67;;;7.90;;
37445;SDS011;23307;51.136;14.942;2022-12-07T01:56:39;11.83;;;7.97;;
37445;SDS011;23307;51.136;14.942;2022-12-07T01:59:08;12.03;;;8.53;;
37445;SDS011;23307;51.136;14.942;2022-12-07T02:01:34;11.50;;;7.50;;
37445;SDS011;23307;51.136;14.942;2022-12-07T02:04:00;11.30;;;7.60;;
37445;SDS011;23307;51.136;14.942;2022-12-07T02:06:26;11.63;;;8.03;;
37445;SDS011;23307;51.136;14.942;2022-12-07T02:08:52;12.73;;;8.40;;
37445;SDS011;23307;51.136;14.942;2022-12-07T02:11:18;13.03;;;8.50;;
37445;SDS011;23307;51.136;14.942;2022-12-07T02:13:45;14.70;;;9.20;;
37445;SDS011;23307;51.136;14.942;2022-12-07T02:35:09;14.67;;;9.20;;
37445;SDS011;23307;51.136;14.942;2022-12-07T02:37:44;13.07;;;8.70;;
37445;SDS011;23307;51.136;14.942;2022-12-07T02:40:20;12.47;;;8.40;;
37445;SDS011;23307;51.136;14.942;2022-12-07T02:42:52;13.70;;;9.07;;
37445;SDS011;23307;51.136;14.942;2022-12-07T02:45:26;12.03;;;8.60;;
37445;SDS011;23307;51.136;14.942;2022-12-07T02:47:55;11.47;;;8.27;;
37445;SDS011;23307;51.136;14.942;2022-12-07T02:50:23;13.23;;;9.80;;
37445;SDS011;23307;51.136;14.942;2022-12-07T02:52:49;14.00;;;9.20;;
37445;SDS011;23307;51.136;14.942;2022-12-07T02:55:15;15.87;;;8.93;;
37445;SDS011;23307;51.136;14.942;2022-12-07T03:00:52;12.57;;;8.87;;
37445;SDS011;23307;51.136;14.942;2022-12-07T03:03:27;11.10;;;7.30;;
37445;SDS011;23307;51.136;14.942;2022-12-07T03:06:07;10.87;;;8.27;;
37445;SDS011;23307;51.136;14.942;2022-12-07T03:08:44;11.27;;;7.87;;
37445;SDS011;23307;51.136;14.942;2022-12-07T03:11:16;12.93;;;9.07;;
37445;SDS011;23307;51.136;14.942;2022-12-07T03:14:04;12.47;;;9.10;;
37445;SDS011;23307;51.136;14.942;2022-12-07T03:16:40;13.23;;;9.67;;
37445;SDS011;23307;51.136;14.942;2022-12-07T03:19:11;13.27;;;9.23;;
37445;SDS011;23307;51.136;14.942;2022-12-07T03:21:40;13.93;;;9.30;;
37445;SDS011;23307;51.136;14.942;2022-12-07T03:24:17;14.47;;;9.67;;
37445;SDS011;23307;51.136;14.942;2022-12-07T03:26:47;12.43;;;8.83;;
37445;SDS011;23307;51.136;14.942;2022-12-07T03:29:20;12.23;;;8.30;;
37445;SDS011;23307;51.136;14.942;2022-12-07T03:31:51;14.37;;;9.90;;
37445;SDS011;23307;51.136;14.942;2022-12-07T03:34:25;14.17;;;9.53;;
37445;SDS011;23307;51.136;14.942;2022-12-07T03:37:23;11.63;;;8.40;;
37445;SDS011;23307;51.136;14.942;2022-12-07T03:42:59;14.47;;;10.13;;
37445;SDS011;23307;51.136;14.942;2022-12-07T03:45:40;14.07;;;10.00;;
37445;SDS011;23307;51.136;14.942;2022-12-07T03:48:14;13.67;;;10.23;;
37445;SDS011;23307;51.136;14.942;2022-12-07T03:50:55;13.97;;;9.80;;
37445;SDS011;23307;51.136;14.942;2022-12-07T03:53:31;14.87;;;10.50;;
37445;SDS011;23307;51.136;14.942;2022-12-07T03:56:04;15.43;;;11.03;;
37445;SDS011;23307;51.136;14.942;2022-12-07T03:58:31;12.63;;;9.77;;
37445;SDS011;23307;51.136;14.942;2022-12-07T04:00:59;14.80;;;10.20;;
37445;SDS011;23307;51.136;14.942;2022-12-07T04:03:24;13.67;;;9.73;;
37445;SDS011;23307;51.136;14.942;2022-12-07T04:05:50;14.73;;;10.73;;
37445;SDS011;23307;51.136;14.942;2022-12-07T04:08:15;14.13;;;10.40;;
37445;SDS011;23307;51.136;14.942;2022-12-07T04:10:41;14.00;;;10.07;;
37445;SDS011;23307;51.136;14.942;2022-12-07T04:13:06;14.03;;;9.73;;
37445;SDS011;23307;51.136;14.942;2022-12-07T04:15:32;14.50;;;10.03;;
37445;SDS011;23307;51.136;14.942;2022-12-07T04:17:57;14.63;;;9.20;;
37445;SDS011;23307;51.136;14.942;2022-12-07T04:20:23;13.03;;;9.57;;
37445;SDS011;23307;51.136;14.942;2022-12-07T04:22:49;15.17;;;10.07;;
37445;SDS011;23307;51.136;14.942;2022-12-07T04:25:14;15.80;;;10.70;;
37445;SDS011;23307;51.136;14.942;2022-12-07T04:27:40;13.97;;;9.83;;
37445;SDS011;23307;51.136;14.942;2022-12-07T04:30:06;14.03;;;9.67;;
37445;SDS011;23307;51.136;14.942;2022-12-07T04:32:32;12.43;;;9.33;;
37445;SDS011;23307;51.136;14.942;2022-12-07T04:34:57;13.13;;;9.33;;
37445;SDS011;23307;51.136;14.942;2022-12-07T04:37:23;11.50;;;8.93;;
37445;SDS011;23307;51.136;14.942;2022-12-07T04:39:48;13.37;;;8.60;;
37445;SDS011;23307;51.136;14.942;2022-12-07T04:42:14;12.43;;;8.60;;
37445;SDS011;23307;51.136;14.942;2022-12-07T04:44:40;11.00;;;7.80;;
37445;SDS011;23307;51.136;14.942;2022-12-07T04:47:05;10.80;;;8.43;;
37445;SDS011;23307;51.136;14.942;2022-12-07T04:49:31;12.07;;;8.20;;
37445;SDS011;23307;51.136;14.942;2022-12-07T04:51:57;10.73;;;7.93;;
37445;SDS011;23307;51.136;14.942;2022-12-07T04:54:22;10.30;;;7.17;;
37445;SDS011;23307;51.136;14.942;2022-12-07T04:56:48;8.90;;;7.20;;
37445;SDS011;23307;51.136;14.942;2022-12-07T04:59:15;10.37;;;7.67;;
37445;SDS011;23307;51.136;14.942;2022-12-07T05:01:41;11.07;;;7.27;;
37445;SDS011;23307;51.136;14.942;2022-12-07T05:04:07;8.73;;;6.80;;
37445;SDS011;23307;51.136;14.942;2022-12-07T05:06:33;9.80;;;7.17;;
37445;SDS011;23307;51.136;14.942;2022-12-07T05:08:59;9.50;;;7.30;;
37445;SDS011;23307;51.136;14.942;2022-12-07T05:11:25;8.30;;;6.37;;
37445;SDS011;23307;51.136;14.942;2022-12-07T05:14:03;8.33;;;6.27;;
37445;SDS011;23307;51.136;14.942;2022-12-07T05:16:37;7.67;;;6.37;;
37445;SDS011;23307;51.136;14.942;2022-12-07T05:19:03;7.47;;;6.27;;
37445;SDS011;23307;51.136;14.942;2022-12-07T05:21:29;7.13;;;5.80;;
37445;SDS011;23307;51.136;14.942;2022-12-07T05:23:55;7.83;;;6.10;;
37445;SDS011;23307;51.136;14.942;2022-12-07T05:26:20;8.03;;;5.77;;
37445;SDS011;23307;51.136;14.942;2022-12-07T05:28:49;7.60;;;6.23;;
37445;SDS011;23307;51.136;14.942;2022-12-07T05:31:16;8.10;;;6.20;;
37445;SDS011;23307;51.136;14.942;2022-12-07T05:33:42;8.13;;;6.37;;
37445;SDS011;23307;51.136;14.942;2022-12-07T05:36:07;7.90;;;6.33;;
37445;SDS011;23307;51.136;14.942;2022-12-07T05:38:33;7.63;;;6.73;;
37445;SDS011;23307;51.136;14.942;2022-12-07T05:41:02;7.97;;;6.90;;
37445;SDS011;23307;51.136;14.942;2022-12-07T05:43:29;7.57;;;6.43;;
37445;SDS011;23307;51.136;14.942;2022-12-07T05:45:55;8.10;;;6.40;;
37445;SDS011;23307;51.136;14.942;2022-12-07T05:48:21;9.33;;;6.43;;
37445;SDS011;23307;51.136;14.942;2022-12-07T05:50:50;8.50;;;6.30;;
37445;SDS011;23307;51.136;14.942;2022-12-07T05:53:16;9.40;;;6.90;;
37445;SDS011;23307;51.136;14.942;2022-12-07T05:55:43;11.17;;;7.20;;
37445;SDS011;23307;51.136;14.942;2022-12-07T05:58:08;9.77;;;7.70;;
37445;SDS011;23307;51.136;14.942;2022-12-07T06:00:56;9.17;;;7.03;;
37445;SDS011;23307;51.136;14.942;2022-12-07T06:03:22;9.13;;;7.27;;
37445;SDS011;23307;51.136;14.942;2022-12-07T06:05:47;7.90;;;6.50;;
37445;SDS011;23307;51.136;14.942;2022-12-07T06:08:13;9.87;;;6.50;;
37445;SDS011;23307;51.136;14.942;2022-12-07T06:10:40;8.33;;;6.63;;
37445;SDS011;23307;51.136;14.942;2022-12-07T06:13:06;9.33;;;7.10;;
37445;SDS011;23307;51.136;14.942;2022-12-07T06:15:32;8.37;;;6.87;;
37445;SDS011;23307;51.136;14.942;2022-12-07T06:18:00;9.70;;;7.20;;
37445;SDS011;23307;51.136;14.942;2022-12-07T06:20:25;9.07;;;7.20;;
37445;SDS011;23307;51.136;14.942;2022-12-07T06:22:51;8.30;;;6.50;;
37445;SDS011;23307;51.136;14.942;2022-12-07T06:25:16;8.40;;;7.00;;
37445;SDS011;23307;51.136;14.942;2022-12-07T06:27:42;10.10;;;8.10;;
37445;SDS011;23307;51.136;14.942;2022-12-07T06:30:07;8.23;;;7.00;;
37445;SDS011;23307;51.136;14.942;2022-12-07T06:32:33;8.13;;;6.83;;
37445;SDS011;23307;51.136;14.942;2022-12-07T06:35:01;9.43;;;7.17;;
37445;SDS011;23307;51.136;14.942;2022-12-07T06:37:26;8.60;;;7.30;;
37445;SDS011;23307;51.136;14.942;2022-12-07T06:39:52;8.87;;;7.27;;
37445;SDS011;23307;51.136;14.942;2022-12-07T06:42:18;7.63;;;6.23;;
37445;SDS011;23307;51.136;14.942;2022-12-07T06:44:43;9.00;;;7.23;;
37445;SDS011;23307;51.136;14.942;2022-12-07T06:47:09;9.90;;;7.40;;
37445;SDS011;23307;51.136;14.942;2022-12-07T06:49:34;8.27;;;7.13;;
37445;SDS011;23307;51.136;14.942;2022-12-07T06:52:00;8.43;;;6.83;;
37445;SDS011;23307;51.136;14.942;2022-12-07T06:54:25;9.30;;;7.23;;
37445;SDS011;23307;51.136;14.942;2022-12-07T06:56:51;8.57;;;7.03;;
37445;SDS011;23307;51.136;14.942;2022-12-07T06:59:16;10.37;;;8.13;;
37445;SDS011;23307;51.136;14.942;2022-12-07T07:01:42;10.13;;;7.43;;
37445;SDS011;23307;51.136;14.942;2022-12-07T07:04:07;10.07;;;7.07;;
37445;SDS011;23307;51.136;14.942;2022-12-07T07:06:33;10.00;;;7.77;;
37445;SDS011;23307;51.136;14.942;2022-12-07T07:08:58;11.63;;;8.23;;
37445;SDS011;23307;51.136;14.942;2022-12-07T07:11:24;9.07;;;7.67;;
37445;SDS011;23307;51.136;14.942;2022-12-07T07:13:49;8.80;;;7.53;;
37445;SDS011;23307;51.136;14.942;2022-12-07T07:16:15;8.60;;;7.20;;
37445;SDS011;23307;51.136;14.942;2022-12-07T07:18:41;9.53;;;7.13;;
37445;SDS011;23307;51.136;14.942;2022-12-07T07:21:06;9.90;;;7.17;;
37445;SDS011;23307;51.136;14.942;2022-12-07T07:23:32;10.07;;;7.03;;
37445;SDS011;23307;51.136;14.942;2022-12-07T07:25:58;9.13;;;6.67;;
37445;SDS011;23307;51.136;14.942;2022-12-07T07:28:23;8.57;;;6.47;;
37445;SDS011;23307;51.136;14.942;2022-12-07T07:30:49;8.40;;;6.70;;
37445;SDS011;23307;51.136;14.942;2022-12-07T07:33:14;10.30;;;7.13;;
37445;SDS011;23307;51.136;14.942;2022-12-07T07:35:40;8.47;;;6.17;;
37445;SDS011;23307;51.136;14.942;2022-12-07T07:38:06;9.00;;;6.43;;
37445;SDS011;23307;51.136;14.942;2022-12-07T07:40:32;9.27;;;7.10;;
37445;SDS011;23307;51.136;14.942;2022-12-07T07:42:57;9.80;;;6.63;;
37445;SDS011;23307;51.136;14.942;2022-12-07T07:45:24;9.60;;;6.63;;
37445;SDS011;23307;51.136;14.942;2022-12-07T07:47:51;9.03;;;6.27;;
37445;SDS011;23307;51.136;14.942;2022-12-07T07:50:17;8.07;;;6.40;;
37445;SDS011;23307;51.136;14.942;2022-12-07T07:52:43;8.13;;;6.03;;
37445;SDS011;23307;51.136;14.942;2022-12-07T07:55:09;7.67;;;6.20;;
37445;SDS011;23307;51.136;14.942;2022-12-07T07:57:35;8.83;;;6.57;;
37445;SDS011;23307;51.136;14.942;2022-12-07T08:00:05;7.87;;;6.40;;
37445;SDS011;23307;51.136;14.942;2022-12-07T08:02:33;8.27;;;6.20;;
37445;SDS011;23307;51.136;14.942;2022-12-07T08:04:59;9.63;;;6.47;;
37445;SDS011;23307;51.136;14.942;2022-12-07T08:07:24;9.80;;;6.63;;
37445;SDS011;23307;51.136;14.942;2022-12-07T08:09:50;8.67;;;6.53;;
37445;SDS011;23307;51.136;14.942;2022-12-07T08:12:15;7.10;;;6.10;;
37445;SDS011;23307;51.136;14.942;2022-12-07T08:14:41;7.83;;;5.93;;
37445;SDS011;23307;51.136;14.942;2022-12-07T08:17:06;6.23;;;5.27;;
37445;SDS011;23307;51.136;14.942;2022-12-07T08:19:32;8.70;;;6.17;;
37445;SDS011;23307;51.136;14.942;2022-12-07T08:21:58;6.53;;;5.67;;
37445;SDS011;23307;51.136;14.942;2022-12-07T08:24:23;7.73;;;6.00;;
37445;SDS011;23307;51.136;14.942;2022-12-07T08:26:50;7.30;;;5.60;;
37445;SDS011;23307;51.136;14.942;2022-12-07T08:29:15;7.37;;;5.97;;
37445;SDS011;23307;51.136;14.942;2022-12-07T08:31:41;8.23;;;6.40;;
37445;SDS011;23307;51.136;14.942;2022-12-07T08:34:06;7.50;;;6.20;;
37445;SDS011;23307;51.136;14.942;2022-12-07T08:36:32;8.73;;;5.97;;
37445;SDS011;23307;51.136;14.942;2022-12-07T08:38:58;8.83;;;6.63;;
37445;SDS011;23307;51.136;14.942;2022-12-07T08:41:23;7.63;;;5.80;;
37445;SDS011;23307;51.136;14.942;2022-12-07T08:43:50;6.57;;;5.60;;
37445;SDS011;23307;51.136;14.942;2022-12-07T08:46:21;7.03;;;5.67;;
37445;SDS011;23307;51.136;14.942;2022-12-07T08:48:52;7.10;;;5.53;;
37445;SDS011;23307;51.136;14.942;2022-12-07T08:51:21;8.60;;;6.20;;
37445;SDS011;23307;51.136;14.942;2022-12-07T08:53:48;7.33;;;5.47;;
37445;SDS011;23307;51.136;14.942;2022-12-07T08:56:16;7.10;;;5.40;;
37445;SDS011;23307;51.136;14.942;2022-12-07T08:58:41;7.20;;;5.13;;
37445;SDS011;23307;51.136;14.942;2022-12-07T09:01:08;5.60;;;4.50;;
37445;SDS011;23307;51.136;14.942;2022-12-07T09:03:33;5.13;;;4.60;;
37445;SDS011;23307;51.136;14.942;2022-12-07T09:05:59;6.33;;;5.40;;
37445;SDS011;23307;51.136;14.942;2022-12-07T09:08:29;6.43;;;4.80;;
37445;SDS011;23307;51.136;14.942;2022-12-07T09:10:58;7.90;;;4.57;;
37445;SDS011;23307;51.136;14.942;2022-12-07T09:13:24;5.40;;;4.67;;
37445;SDS011;23307;51.136;14.942;2022-12-07T09:15:49;7.70;;;4.97;;
37445;SDS011;23307;51.136;14.942;2022-12-07T09:18:15;5.43;;;4.73;;
37445;SDS011;23307;51.136;14.942;2022-12-07T09:20:40;6.63;;;4.87;;
37445;SDS011;23307;51.136;14.942;2022-12-07T09:23:06;5.47;;;4.60;;
37445;SDS011;23307;51.136;14.942;2022-12-07T09:25:32;6.30;;;4.83;;
37445;SDS011;23307;51.136;14.942;2022-12-07T09:27:58;6.83;;;4.97;;
37445;SDS011;23307;51.136;14.942;2022-12-07T09:30:24;6.17;;;4.97;;
37445;SDS011;23307;51.136;14.942;2022-12-07T09:32:52;6.03;;;4.83;;
37445;SDS011;23307;51.136;14.942;2022-12-07T09:35:19;5.30;;;4.27;;
37445;SDS011;23307;51.136;14.942;2022-12-07T09:37:44;5.80;;;4.70;;
37445;SDS011;23307;51.136;14.942;2022-12-07T09:40:10;5.10;;;4.60;;
37445;SDS011;23307;51.136;14.942;2022-12-07T09:42:37;5.53;;;4.47;;
37445;SDS011;23307;51.136;14.942;2022-12-07T09:45:06;6.10;;;4.93;;
37445;SDS011;23307;51.136;14.942;2022-12-07T09:47:38;5.73;;;5.13;;
37445;SDS011;23307;51.136;14.942;2022-12-07T09:50:04;5.30;;;4.80;;
37445;SDS011;23307;51.136;14.942;2022-12-07T09:52:37;7.63;;;4.73;;
37445;SDS011;23307;51.136;14.942;2022-12-07T09:55:02;6.00;;;4.77;;
37445;SDS011;23307;51.136;14.942;2022-12-07T09:57:29;5.87;;;4.80;;
37445;SDS011;23307;51.136;14.942;2022-12-07T09:59:59;5.57;;;4.50;;
37445;SDS011;23307;51.136;14.942;2022-12-07T10:02:38;5.50;;;4.30;;
37445;SDS011;23307;51.136;14.942;2022-12-07T10:05:07;6.40;;;4.27;;
37445;SDS011;23307;51.136;14.942;2022-12-07T10:07:38;6.60;;;4.37;;
37445;SDS011;23307;51.136;14.942;2022-12-07T10:10:04;6.50;;;4.50;;
37445;SDS011;23307;51.136;14.942;2022-12-07T10:12:52;5.97;;;4.17;;
37445;SDS011;23307;51.136;14.942;2022-12-07T10:15:19;6.77;;;4.13;;
37445;SDS011;23307;51.136;14.942;2022-12-07T10:17:51;7.07;;;4.23;;
37445;SDS011;23307;51.136;14.942;2022-12-07T10:23:03;5.60;;;4.00;;
37445;SDS011;23307;51.136;14.942;2022-12-07T10:25:34;5.13;;;4.07;;
37445;SDS011;23307;51.136;14.942;2022-12-07T10:30:32;6.07;;;4.00;;
37445;SDS011;23307;51.136;14.942;2022-12-07T10:33:29;6.43;;;4.37;;
37445;SDS011;23307;51.136;14.942;2022-12-07T10:36:00;5.47;;;4.03;;
37445;SDS011;23307;51.136;14.942;2022-12-07T10:38:44;5.27;;;3.90;;
37445;SDS011;23307;51.136;14.942;2022-12-07T10:41:14;5.70;;;4.10;;
37445;SDS011;23307;51.136;14.942;2022-12-07T10:43:51;6.23;;;3.90;;
37445;SDS011;23307;51.136;14.942;2022-12-07T10:55:03;8.40;;;4.83;;
37445;SDS011;23307;51.136;14.942;2022-12-07T10:57:41;4.83;;;4.00;;
37445;SDS011;23307;51.136;14.942;2022-12-07T11:00:23;5.43;;;4.13;;
37445;SDS011;23307;51.136;14.942;2022-12-07T11:08:27;8.70;;;4.13;;
37445;SDS011;23307;51.136;14.942;2022-12-07T11:11:20;3.83;;;3.20;;
37445;SDS011;23307;51.136;14.942;2022-12-07T11:16:38;5.70;;;4.10;;
37445;SDS011;23307;51.136;14.942;2022-12-07T11:21:55;4.67;;;4.03;;
37445;SDS011;23307;51.136;14.942;2022-12-07T11:24:25;6.23;;;3.50;;
37445;SDS011;23307;51.136;14.942;2022-12-07T11:30:10;5.13;;;3.57;;
37445;SDS011;23307;51.136;14.942;2022-12-07T11:38:17;4.47;;;3.20;;
37445;SDS011;23307;51.136;14.942;2022-12-07T11:40:50;8.87;;;3.93;;
37445;SDS011;23307;51.136;14.942;2022-12-07T11:43:32;6.27;;;3.63;;
37445;SDS011;23307;51.136;14.942;2022-12-07T11:46:02;8.23;;;3.80;;
37445;SDS011;23307;51.136;14.942;2022-12-07T11:49:10;5.40;;;3.87;;
37445;SDS011;23307;51.136;14.942;2022-12-07T11:51:49;7.43;;;4.10;;
37445;SDS011;23307;51.136;14.942;2022-12-07T11:54:20;4.67;;;3.60;;
37445;SDS011;23307;51.136;14.942;2022-12-07T11:56:53;4.87;;;3.53;;
37445;SDS011;23307;51.136;14.942;2022-12-07T11:59:29;5.40;;;3.47;;
37445;SDS011;23307;51.136;14.942;2022-12-07T12:07:24;4.63;;;3.77;;
37445;SDS011;23307;51.136;14.942;2022-12-07T12:18:31;5.30;;;3.37;;
37445;SDS011;23307;51.136;14.942;2022-12-07T12:21:14;5.17;;;3.57;;
37445;SDS011;23307;51.136;14.942;2022-12-07T12:23:43;3.57;;;2.80;;
37445;SDS011;23307;51.136;14.942;2022-12-07T12:26:23;4.47;;;3.20;;
37445;SDS011;23307;51.136;14.942;2022-12-07T12:28:57;5.03;;;3.20;;
37445;SDS011;23307;51.136;14.942;2022-12-07T12:34:00;4.33;;;3.47;;
37445;SDS011;23307;51.136;14.942;2022-12-07T12:44:01;5.07;;;3.63;;
37445;SDS011;23307;51.136;14.942;2022-12-07T12:46:35;7.43;;;3.50;;
37445;SDS011;23307;51.136;14.942;2022-12-07T13:04:56;4.60;;;3.50;;
37445;SDS011;23307;51.136;14.942;2022-12-07T13:12:43;2.00;;;1.70;;
37445;SDS011;23307;51.136;14.942;2022-12-07T13:15:31;3.60;;;1.70;;
37445;SDS011;23307;51.136;14.942;2022-12-07T13:17:58;1.53;;;1.33;;
37445;SDS011;23307;51.136;14.942;2022-12-07T13:23:10;2.13;;;1.70;;
37445;SDS011;23307;51.136;14.942;2022-12-07T13:25:38;2.00;;;1.80;;
37445;SDS011;23307;51.136;14.942;2022-12-07T13:28:17;1.70;;;1.60;;
37445;SDS011;23307;51.136;14.942;2022-12-07T13:30:50;2.67;;;1.97;;
37445;SDS011;23307;51.136;14.942;2022-12-07T13:33:22;2.73;;;1.60;;
37445;SDS011;23307;51.136;14.942;2022-12-07T13:35:47;2.30;;;1.20;;
37445;SDS011;23307;51.136;14.942;2022-12-07T13:40:59;2.10;;;1.70;;
37445;SDS011;23307;51.136;14.942;2022-12-07T13:49:24;3.17;;;1.50;;
37445;SDS011;23307;51.136;14.942;2022-12-07T13:51:55;2.80;;;1.97;;
37445;SDS011;23307;51.136;14.942;2022-12-07T13:54:43;4.80;;;2.30;;
37445;SDS011;23307;51.136;14.942;2022-12-07T13:57:11;3.07;;;2.30;;
37445;SDS011;23307;51.136;14.942;2022-12-07T13:59:36;1.73;;;1.60;;
37445;SDS011;23307;51.136;14.942;2022-12-07T14:02:16;1.80;;;1.53;;
37445;SDS011;23307;51.136;14.942;2022-12-07T14:04:49;3.37;;;1.70;;
37445;SDS011;23307;51.136;14.942;2022-12-07T14:07:19;2.80;;;1.83;;
37445;SDS011;23307;51.136;14.942;2022-12-07T14:09:53;1.93;;;1.67;;
37445;SDS011;23307;51.136;14.942;2022-12-07T14:12:24;3.83;;;3.43;;
37445;SDS011;23307;51.136;14.942;2022-12-07T14:14:51;2.60;;;2.07;;
37445;SDS011;23307;51.136;14.942;2022-12-07T14:17:18;2.37;;;1.83;;
37445;SDS011;23307;51.136;14.942;2022-12-07T14:19:46;2.63;;;2.10;;
37445;SDS011;23307;51.136;14.942;2022-12-07T14:27:40;2.03;;;1.47;;
37445;SDS011;23307;51.136;14.942;2022-12-07T14:30:16;1.73;;;1.57;;
37445;SDS011;23307;51.136;14.942;2022-12-07T14:32:43;1.57;;;1.33;;
37445;SDS011;23307;51.136;14.942;2022-12-07T14:35:14;2.70;;;1.40;;
37445;SDS011;23307;51.136;14.942;2022-12-07T14:37:42;2.13;;;1.70;;
37445;SDS011;23307;51.136;14.942;2022-12-07T14:40:13;2.00;;;1.50;;
37445;SDS011;23307;51.136;14.942;2022-12-07T14:42:46;2.17;;;1.60;;
37445;SDS011;23307;51.136;14.942;2022-12-07T14:45:15;3.03;;;1.57;;
37445;SDS011;23307;51.136;14.942;2022-12-07T14:47:44;2.33;;;1.70;;
37445;SDS011;23307;51.136;14.942;2022-12-07T14:50:14;1.87;;;1.67;;
37445;SDS011;23307;51.136;14.942;2022-12-07T14:52:42;2.03;;;1.63;;
37445;SDS011;23307;51.136;14.942;2022-12-07T14:55:24;2.27;;;1.80;;
37445;SDS011;23307;51.136;14.942;2022-12-07T14:57:54;3.33;;;1.83;;
37445;SDS011;23307;51.136;14.942;2022-12-07T15:00:21;2.93;;;1.80;;
37445;SDS011;23307;51.136;14.942;2022-12-07T15:02:48;2.93;;;1.77;;
37445;SDS011;23307;51.136;14.942;2022-12-07T15:05:15;3.20;;;1.63;;
37445;SDS011;23307;51.136;14.942;2022-12-07T15:07:41;2.30;;;2.00;;
37445;SDS011;23307;51.136;14.942;2022-12-07T15:10:15;3.07;;;1.93;;
37445;SDS011;23307;51.136;14.942;2022-12-07T15:12:46;4.07;;;2.23;;
37445;SDS011;23307;51.136;14.942;2022-12-07T15:15:12;2.50;;;2.30;;
37445;SDS011;23307;51.136;14.942;2022-12-07T15:17:38;4.23;;;2.43;;
37445;SDS011;23307;51.136;14.942;2022-12-07T15:20:04;2.23;;;2.03;;
37445;SDS011;23307;51.136;14.942;2022-12-07T15:22:30;4.47;;;2.73;;
37445;SDS011;23307;51.136;14.942;2022-12-07T15:24:56;3.37;;;2.60;;
37445;SDS011;23307;51.136;14.942;2022-12-07T15:27:22;2.77;;;2.33;;
37445;SDS011;23307;51.136;14.942;2022-12-07T15:29:47;4.20;;;2.77;;
37445;SDS011;23307;51.136;14.942;2022-12-07T15:32:13;3.30;;;2.70;;
37445;SDS011;23307;51.136;14.942;2022-12-07T15:34:38;6.97;;;3.00;;
37445;SDS011;23307;51.136;14.942;2022-12-07T15:37:04;3.90;;;3.40;;
37445;SDS011;23307;51.136;14.942;2022-12-07T15:39:30;4.50;;;3.30;;
37445;SDS011;23307;51.136;14.942;2022-12-07T15:41:55;5.87;;;3.40;;
37445;SDS011;23307;51.136;14.942;2022-12-07T15:44:21;4.50;;;3.87;;
37445;SDS011;23307;51.136;14.942;2022-12-07T15:47:05;5.30;;;4.50;;
37445;SDS011;23307;51.136;14.942;2022-12-07T15:49:31;5.43;;;4.27;;
37445;SDS011;23307;51.136;14.942;2022-12-07T15:51:56;5.70;;;4.23;;
37445;SDS011;23307;51.136;14.942;2022-12-07T15:54:26;4.47;;;4.07;;
37445;SDS011;23307;51.136;14.942;2022-12-07T15:56:53;4.70;;;4.00;;
37445;SDS011;23307;51.136;14.942;2022-12-07T15:59:19;6.43;;;4.03;;
37445;SDS011;23307;51.136;14.942;2022-12-07T16:01:45;4.60;;;4.10;;
37445;SDS011;23307;51.136;14.942;2022-12-07T16:04:10;7.53;;;3.83;;
37445;SDS011;23307;51.136;14.942;2022-12-07T16:06:36;4.57;;;3.70;;
37445;SDS011;23307;51.136;14.942;2022-12-07T16:09:02;4.20;;;3.80;;
37445;SDS011;23307;51.136;14.942;2022-12-07T16:11:28;4.80;;;3.77;;
37445;SDS011;23307;51.136;14.942;2022-12-07T16:13:54;4.03;;;3.63;;
37445;SDS011;23307;51.136;14.942;2022-12-07T16:16:20;9.07;;;6.37;;
37445;SDS011;23307;51.136;14.942;2022-12-07T16:18:49;5.80;;;3.90;;
37445;SDS011;23307;51.136;14.942;2022-12-07T16:21:15;4.23;;;3.70;;
37445;SDS011;23307;51.136;14.942;2022-12-07T16:23:42;7.20;;;5.00;;
37445;SDS011;23307;51.136;14.942;2022-12-07T16:26:10;6.03;;;4.50;;
37445;SDS011;23307;51.136;14.942;2022-12-07T16:28:41;4.27;;;3.70;;
37445;SDS011;23307;51.136;14.942;2022-12-07T16:31:08;4.57;;;3.70;;
37445;SDS011;23307;51.136;14.942;2022-12-07T16:33:36;5.20;;;3.90;;
37445;SDS011;23307;51.136;14.942;2022-12-07T16:36:03;6.37;;;4.23;;
37445;SDS011;23307;51.136;14.942;2022-12-07T16:38:31;5.37;;;4.00;;
37445;SDS011;23307;51.136;14.942;2022-12-07T16:40:57;4.97;;;3.40;;
37445;SDS011;23307;51.136;14.942;2022-12-07T16:43:23;3.93;;;3.30;;
37445;SDS011;23307;51.136;14.942;2022-12-07T16:45:49;3.77;;;3.17;;
37445;SDS011;23307;51.136;14.942;2022-12-07T16:48:14;4.40;;;2.97;;